createdAt,value
2023-05-07T00:01:46.827Z,9.77
2023-05-07T00:04:15.401Z,10.27
2023-05-07T00:06:44.258Z,8.70
2023-05-07T00:09:21.139Z,8.27
2023-05-07T00:11:59.025Z,8.27
2023-05-07T00:14:27.803Z,8.47
2023-05-07T00:17:01.108Z,8.17
2023-05-07T00:19:29.727Z,7.43
2023-05-07T00:22:00.326Z,6.60
2023-05-07T00:24:28.823Z,6.97
2023-05-07T00:26:59.879Z,6.30
2023-05-07T00:29:28.803Z,5.13
2023-05-07T00:31:57.218Z,5.97
2023-05-07T00:34:26.963Z,6.47
2023-05-07T00:36:55.876Z,7.43
2023-05-07T00:39:23.050Z,7.43
2023-05-07T00:41:53.989Z,7.33
2023-05-07T00:44:24.962Z,8.43
2023-05-07T00:46:54.607Z,9.23
2023-05-07T00:49:30.672Z,9.10
2023-05-07T00:52:07.054Z,10.30
2023-05-07T00:54:36.734Z,9.60
2023-05-07T00:57:13.084Z,9.83
2023-05-07T00:59:46.237Z,10.40
2023-05-07T01:02:19.288Z,9.73
2023-05-07T01:04:48.485Z,9.63
2023-05-07T01:07:18.539Z,9.53
2023-05-07T01:09:48.658Z,9.00
2023-05-07T01:12:17.943Z,10.00
2023-05-07T01:14:45.751Z,9.77
2023-05-07T01:17:17.708Z,9.37
2023-05-07T01:19:47.609Z,9.87
2023-05-07T01:22:42.025Z,10.23
2023-05-07T01:25:19.477Z,9.20
2023-05-07T01:27:47.214Z,7.63
2023-05-07T01:30:15.789Z,5.97
2023-05-07T01:33:09.259Z,5.93
2023-05-07T01:35:49.732Z,6.30
2023-05-07T01:38:19.833Z,5.27
2023-05-07T01:40:50.387Z,6.30
2023-05-07T01:43:20.131Z,6.17
2023-05-07T01:45:54.350Z,6.20
2023-05-07T01:48:22.939Z,6.17
2023-05-07T01:51:01.554Z,6.03
2023-05-07T01:53:38.385Z,6.13
2023-05-07T01:56:07.417Z,6.07
2023-05-07T01:58:35.692Z,5.87
2023-05-07T02:01:05.227Z,6.00
2023-05-07T02:03:36.031Z,5.43
2023-05-07T02:06:05.754Z,5.80
2023-05-07T02:08:35.546Z,6.10
2023-05-07T02:11:05.993Z,6.47
2023-05-07T02:13:38.095Z,6.33
2023-05-07T02:16:08.333Z,6.53
2023-05-07T02:18:45.898Z,6.47
2023-05-07T02:21:16.310Z,6.77
2023-05-07T02:23:45.304Z,6.40
2023-05-07T02:26:13.777Z,6.90
2023-05-07T02:28:47.941Z,6.47
2023-05-07T02:31:25.774Z,6.83
2023-05-07T02:33:53.876Z,6.40
2023-05-07T02:36:22.216Z,6.80
2023-05-07T02:38:51.880Z,7.20
2023-05-07T02:41:27.349Z,6.90
2023-05-07T02:44:04.691Z,6.43
2023-05-07T02:46:36.959Z,6.87
2023-05-07T02:49:04.178Z,7.67
2023-05-07T02:51:33.090Z,7.17
2023-05-07T02:54:04.616Z,6.80
2023-05-07T02:56:33.928Z,7.10
2023-05-07T02:59:10.058Z,6.97
2023-05-07T03:01:37.824Z,6.97
2023-05-07T03:04:06.747Z,6.67
2023-05-07T03:06:35.994Z,7.30
2023-05-07T03:09:05.858Z,7.37
2023-05-07T03:11:34.939Z,7.23
2023-05-07T03:16:47.837Z,7.23
2023-05-07T03:19:25.226Z,6.93
2023-05-07T03:21:56.022Z,7.20
2023-05-07T03:24:25.602Z,7.10
2023-05-07T03:27:01.176Z,6.90
2023-05-07T03:29:32.026Z,7.00
2023-05-07T03:32:02.830Z,6.97
2023-05-07T03:34:39.750Z,6.47
2023-05-07T03:37:16.677Z,6.60
2023-05-07T03:39:52.815Z,7.97
2023-05-07T03:42:29.467Z,6.60
2023-05-07T03:44:58.790Z,6.87
2023-05-07T03:47:27.443Z,7.23
2023-05-07T03:49:57.096Z,7.60
2023-05-07T03:52:38.127Z,7.77
2023-05-07T03:55:10.454Z,7.03
2023-05-07T03:57:38.969Z,6.90
2023-05-07T04:00:09.522Z,6.17
2023-05-07T04:02:47.263Z,6.83
2023-05-07T04:05:18.854Z,6.10
2023-05-07T04:07:49.009Z,6.80
2023-05-07T04:10:20.494Z,6.10
2023-05-07T04:12:53.580Z,6.40
2023-05-07T04:15:30.690Z,6.90
2023-05-07T04:17:59.442Z,7.13
2023-05-07T04:20:36.497Z,6.40
2023-05-07T04:23:06.628Z,6.60
2023-05-07T04:25:42.729Z,6.73
2023-05-07T04:28:19.717Z,7.10
2023-05-07T04:30:47.612Z,7.20
2023-05-07T04:33:27.533Z,6.70
2023-05-07T04:35:58.733Z,6.63
2023-05-07T04:38:29.327Z,6.57
2023-05-07T04:40:58.454Z,6.50
2023-05-07T04:43:26.774Z,6.27
2023-05-07T04:45:56.996Z,6.37
2023-05-07T04:48:28.991Z,6.73
2023-05-07T04:51:05.806Z,6.73
2023-05-07T04:53:43.187Z,6.30
2023-05-07T04:56:10.375Z,6.20
2023-05-07T04:58:40.955Z,5.87
2023-05-07T05:01:11.867Z,6.20
2023-05-07T05:03:42.561Z,5.70
2023-05-07T05:06:14.697Z,5.13
2023-05-07T05:08:43.054Z,5.20
2023-05-07T05:11:10.953Z,4.57
2023-05-07T05:13:39.138Z,4.20
2023-05-07T05:16:09.543Z,3.93
2023-05-07T05:18:43.205Z,3.90
2023-05-07T05:21:19.850Z,4.00
2023-05-07T05:23:51.098Z,3.63
2023-05-07T05:26:19.794Z,3.33
2023-05-07T05:28:48.396Z,4.07
2023-05-07T05:31:26.780Z,4.20
2023-05-07T05:33:55.777Z,4.20
2023-05-07T05:36:26.251Z,4.10
2023-05-07T05:38:53.393Z,4.40
2023-05-07T05:41:29.471Z,3.87
2023-05-07T05:43:58.731Z,4.27
2023-05-07T05:46:28.702Z,4.50
2023-05-07T05:48:57.995Z,4.40
2023-05-07T05:51:34.875Z,4.07
2023-05-07T05:54:06.185Z,4.00
2023-05-07T05:56:36.789Z,4.13
2023-05-07T05:59:07.495Z,4.43
2023-05-07T06:01:42.281Z,4.87
2023-05-07T06:04:12.750Z,4.93
2023-05-07T06:06:42.912Z,5.50
2023-05-07T06:09:13.893Z,5.07
2023-05-07T06:11:43.880Z,5.10
2023-05-07T06:14:12.711Z,4.53
2023-05-07T06:19:35.250Z,4.40
2023-05-07T06:22:05.456Z,4.40
2023-05-07T06:24:34.339Z,3.90
2023-05-07T06:27:08.117Z,4.17
2023-05-07T06:29:40.691Z,3.70
2023-05-07T06:32:23.409Z,4.03
2023-05-07T06:34:54.622Z,3.77
2023-05-07T06:37:26.370Z,4.27
2023-05-07T06:39:59.899Z,4.20
2023-05-07T06:42:40.197Z,3.87
2023-05-07T06:45:13.225Z,3.60
2023-05-07T06:47:42.713Z,4.00
2023-05-07T06:50:21.503Z,4.00
2023-05-07T06:52:58.078Z,3.40
2023-05-07T06:55:28.004Z,3.50
2023-05-07T06:58:02.270Z,3.63
2023-05-07T07:00:38.395Z,3.93
2023-05-07T07:03:09.888Z,3.90
2023-05-07T07:05:39.594Z,3.90
2023-05-07T07:08:08.116Z,3.83
2023-05-07T07:10:40.523Z,4.77
2023-05-07T07:13:19.800Z,4.38
2023-05-07T07:15:48.055Z,4.30
2023-05-07T07:18:16.621Z,4.60
2023-05-07T07:20:53.775Z,4.18
2023-05-07T07:23:21.581Z,4.35
2023-05-07T07:25:50.214Z,4.55
2023-05-07T07:28:23.270Z,4.37
2023-05-07T07:30:59.866Z,4.67
2023-05-07T07:33:29.385Z,4.30
2023-05-07T07:36:07.155Z,4.82
2023-05-07T07:38:36.457Z,4.93
2023-05-07T07:41:06.734Z,4.78
2023-05-07T07:43:35.970Z,4.90
2023-05-07T07:46:04.975Z,5.15
2023-05-07T07:48:35.335Z,4.95
2023-05-07T07:51:02.549Z,5.45
2023-05-07T07:53:32.246Z,4.47
2023-05-07T07:56:10.457Z,5.45
2023-05-07T07:58:39.325Z,5.25
2023-05-07T08:01:08.790Z,5.90
2023-05-07T08:03:44.719Z,5.38
2023-05-07T08:06:16.299Z,5.68
2023-05-07T08:08:45.688Z,5.18
2023-05-07T08:11:14.032Z,4.70
2023-05-07T08:13:42.649Z,4.45
2023-05-07T08:16:13.735Z,5.00
2023-05-07T08:18:47.424Z,4.50
2023-05-07T08:21:15.079Z,4.60
2023-05-07T08:23:45.905Z,4.82
2023-05-07T08:26:15.825Z,4.35
2023-05-07T08:28:46.781Z,4.80
2023-05-07T08:31:17.684Z,5.10
2023-05-07T08:33:48.503Z,5.07
2023-05-07T08:36:26.578Z,5.05
2023-05-07T08:38:57.233Z,4.80
2023-05-07T08:41:27.491Z,4.97
2023-05-07T08:44:06.229Z,4.88
2023-05-07T08:46:37.613Z,4.72
2023-05-07T08:49:13.210Z,4.40
2023-05-07T08:51:58.146Z,4.97
2023-05-07T08:54:27.357Z,4.50
2023-05-07T08:56:58.609Z,4.40
2023-05-07T08:59:30.061Z,4.60
2023-05-07T09:01:59.876Z,4.72
2023-05-07T09:04:34.416Z,4.88
2023-05-07T09:07:06.794Z,4.80
2023-05-07T09:09:35.330Z,5.00
2023-05-07T09:12:04.887Z,4.57
2023-05-07T09:14:34.367Z,4.20
2023-05-07T09:17:10.814Z,4.25
2023-05-07T09:19:51.177Z,5.47
2023-05-07T09:22:21.433Z,4.47
2023-05-07T09:24:55.840Z,4.28
2023-05-07T09:27:33.423Z,4.13
2023-05-07T09:30:08.576Z,4.00
2023-05-07T09:32:40.407Z,4.25
2023-05-07T09:35:17.415Z,4.53
2023-05-07T09:37:50.164Z,3.80
2023-05-07T09:40:30.557Z,4.15
2023-05-07T09:43:12.946Z,4.63
2023-05-07T09:45:46.767Z,4.10
2023-05-07T09:48:19.892Z,4.28
2023-05-07T09:50:53.489Z,4.80
2023-05-07T09:53:23.160Z,4.43
2023-05-07T09:55:53.648Z,4.20
2023-05-07T09:58:24.022Z,3.95
2023-05-07T10:00:54.056Z,4.00
2023-05-07T10:03:44.500Z,4.40
2023-05-07T10:06:14.657Z,4.00
2023-05-07T10:08:45.617Z,4.07
2023-05-07T10:11:17.718Z,4.18
2023-05-07T10:13:48.322Z,4.03
2023-05-07T10:16:17.205Z,4.35
2023-05-07T10:18:48.472Z,4.03
2023-05-07T10:21:26.943Z,4.20
2023-05-07T10:24:20.273Z,3.65
2023-05-07T10:26:54.898Z,3.70
2023-05-07T10:30:17.830Z,3.85
2023-05-07T10:32:59.802Z,3.90
2023-05-07T10:35:43.300Z,3.58
2023-05-07T10:38:20.539Z,3.55
2023-05-07T10:40:49.985Z,4.00
2023-05-07T10:43:24.356Z,3.53
2023-05-07T10:46:16.706Z,3.70
2023-05-07T10:49:13.567Z,3.10
2023-05-07T10:51:42.811Z,3.30
2023-05-07T10:54:22.916Z,3.58
2023-05-07T10:56:55.081Z,3.38
2023-05-07T10:59:46.493Z,3.67
2023-05-07T11:02:16.978Z,3.80
2023-05-07T11:04:46.782Z,3.70
2023-05-07T11:07:33.545Z,3.33
2023-05-07T11:10:07.038Z,3.33
2023-05-07T11:12:59.155Z,3.40
2023-05-07T11:15:45.495Z,3.20
2023-05-07T11:18:17.649Z,3.10
2023-05-07T11:21:11.630Z,3.10
2023-05-07T11:23:58.702Z,3.40
2023-05-07T11:26:34.027Z,3.28
2023-05-07T11:29:10.877Z,2.90
2023-05-07T11:31:41.269Z,3.00
2023-05-07T11:34:11.194Z,2.80
2023-05-07T11:36:47.894Z,3.10
2023-05-07T11:39:38.002Z,2.78
2023-05-07T11:42:09.147Z,3.00
2023-05-07T11:44:48.012Z,2.90
2023-05-07T11:47:23.259Z,2.70
2023-05-07T11:49:58.753Z,2.60
2023-05-07T11:52:27.092Z,2.72
2023-05-07T11:55:07.971Z,2.90
2023-05-07T11:57:35.849Z,2.90
2023-05-07T12:00:09.527Z,3.03
2023-05-07T12:02:42.592Z,2.97
2023-05-07T12:05:11.625Z,2.92
2023-05-07T12:07:46.083Z,3.25
2023-05-07T12:10:15.163Z,3.10
2023-05-07T12:12:49.217Z,3.10
2023-05-07T12:15:30.264Z,2.63
2023-05-07T12:18:00.916Z,3.10
2023-05-07T12:20:31.273Z,2.60
2023-05-07T12:23:00.048Z,2.90
2023-05-07T12:25:50.642Z,2.70
2023-05-07T12:28:29.255Z,3.30
2023-05-07T12:31:00.031Z,2.80
2023-05-07T12:34:03.452Z,2.90
2023-05-07T12:36:44.166Z,3.55
2023-05-07T12:39:13.046Z,3.13
2023-05-07T12:42:01.072Z,2.63
2023-05-07T12:44:35.057Z,2.97
2023-05-07T12:47:08.596Z,2.83
2023-05-07T12:49:40.491Z,3.08
2023-05-07T12:52:08.813Z,3.05
2023-05-07T12:54:42.692Z,2.83
2023-05-07T12:57:11.729Z,3.05
2023-05-07T12:59:46.432Z,3.33
2023-05-07T13:02:15.957Z,3.30
2023-05-07T13:04:46.013Z,3.15
2023-05-07T13:07:16.454Z,3.40
2023-05-07T13:09:47.052Z,3.70
2023-05-07T13:12:17.529Z,3.03
2023-05-07T13:14:46.204Z,3.40
2023-05-07T13:17:15.179Z,3.55
2023-05-07T13:19:44.355Z,3.17
2023-05-07T13:22:13.148Z,3.80
2023-05-07T13:24:54.919Z,3.70
2023-05-07T13:27:23.492Z,4.15
2023-05-07T13:29:51.218Z,4.57
2023-05-07T13:32:27.865Z,5.47
2023-05-07T13:34:57.039Z,5.15
2023-05-07T13:37:33.159Z,6.22
2023-05-07T13:40:02.625Z,6.77
2023-05-07T13:42:35.211Z,7.40
2023-05-07T13:45:07.079Z,8.30
2023-05-07T13:47:40.063Z,8.67
2023-05-07T13:50:11.701Z,10.00
2023-05-07T13:52:55.277Z,9.83
2023-05-07T13:55:25.220Z,11.17
2023-05-07T13:58:07.799Z,11.37
2023-05-07T14:00:44.064Z,11.03
2023-05-07T14:03:13.694Z,11.47
2023-05-07T14:05:44.698Z,11.33
2023-05-07T14:08:16.565Z,11.17
2023-05-07T14:10:46.624Z,12.13
2023-05-07T14:13:20.418Z,12.73
2023-05-07T14:15:51.497Z,13.20
2023-05-07T14:18:24.695Z,13.93
2023-05-07T14:23:35.459Z,13.60
2023-05-07T14:26:04.553Z,14.50
2023-05-07T14:28:34.226Z,13.10
2023-05-07T14:31:04.562Z,12.33
2023-05-07T14:33:42.330Z,11.23
2023-05-07T14:36:19.284Z,12.03
2023-05-07T14:38:49.494Z,11.00
2023-05-07T14:41:18.467Z,11.70
2023-05-07T14:43:56.645Z,10.67
2023-05-07T14:46:26.638Z,10.27
2023-05-07T14:48:56.312Z,11.53
2023-05-07T14:51:25.398Z,10.73
2023-05-07T14:53:53.651Z,11.37
2023-05-07T14:56:25.804Z,12.17
2023-05-07T14:59:04.775Z,12.77
2023-05-07T15:01:34.438Z,13.07
2023-05-07T15:04:07.529Z,12.70
2023-05-07T15:06:37.922Z,13.83
2023-05-07T15:09:05.266Z,13.27
2023-05-07T15:11:36.450Z,13.10
2023-05-07T15:14:12.716Z,13.93
2023-05-07T15:16:43.246Z,13.83
2023-05-07T15:19:19.686Z,13.63
2023-05-07T15:21:52.572Z,13.20
2023-05-07T15:24:21.901Z,13.10
2023-05-07T15:26:58.579Z,13.63
2023-05-07T15:29:28.748Z,13.37
2023-05-07T15:31:58.108Z,12.73
2023-05-07T15:34:32.806Z,14.27
2023-05-07T15:37:01.484Z,13.73
2023-05-07T15:39:31.419Z,13.90
2023-05-07T15:41:59.915Z,14.40
2023-05-07T15:44:42.626Z,12.90
2023-05-07T15:47:11.167Z,13.20
2023-05-07T15:49:42.275Z,14.27
2023-05-07T15:52:21.146Z,12.97
2023-05-07T15:54:49.904Z,14.30
2023-05-07T15:57:20.662Z,13.47
2023-05-07T15:59:56.929Z,13.73
2023-05-07T16:02:26.007Z,13.47
2023-05-07T16:05:02.294Z,13.90
2023-05-07T16:07:35.577Z,13.80
2023-05-07T16:10:13.585Z,12.97
2023-05-07T16:12:50.737Z,13.07
2023-05-07T16:15:28.937Z,13.33
2023-05-07T16:18:02.189Z,13.17
2023-05-07T16:20:34.472Z,13.27
2023-05-07T16:23:05.340Z,12.53
2023-05-07T16:25:33.841Z,12.43
2023-05-07T16:28:04.288Z,12.50
2023-05-07T16:30:34.276Z,11.27
2023-05-07T16:33:08.695Z,11.20
2023-05-07T16:35:37.166Z,11.93
2023-05-07T16:38:11.131Z,10.50
2023-05-07T16:40:42.619Z,11.10
2023-05-07T16:43:13.335Z,10.37
2023-05-07T16:45:45.078Z,10.00
2023-05-07T16:48:13.308Z,10.33
2023-05-07T16:50:44.864Z,9.63
2023-05-07T16:53:15.479Z,9.80
2023-05-07T16:55:45.992Z,9.73
2023-05-07T16:58:21.527Z,10.80
2023-05-07T17:00:52.157Z,10.00
2023-05-07T17:03:23.411Z,10.73
2023-05-07T17:06:01.308Z,11.10
2023-05-07T17:08:35.284Z,11.32
2023-05-07T17:11:05.107Z,11.50
2023-05-07T17:13:33.601Z,13.18
2023-05-07T17:16:02.969Z,13.07
2023-05-07T17:18:41.660Z,12.07
2023-05-07T17:21:09.450Z,12.63
2023-05-07T17:23:44.945Z,13.38
2023-05-07T17:26:18.624Z,13.30
2023-05-07T17:28:48.133Z,14.93
2023-05-07T17:31:18.945Z,16.17
2023-05-07T17:33:49.361Z,16.83
2023-05-07T17:36:19.168Z,16.37
2023-05-07T17:39:01.697Z,14.93
2023-05-07T17:41:31.180Z,16.13
2023-05-07T17:44:03.573Z,16.27
2023-05-07T17:46:32.175Z,17.37
2023-05-07T17:49:07.348Z,16.23
2023-05-07T17:51:46.273Z,16.60
2023-05-07T17:54:29.421Z,16.77
2023-05-07T17:56:58.329Z,16.10
2023-05-07T17:59:29.189Z,17.27
2023-05-07T18:02:02.236Z,18.73
2023-05-07T18:04:30.314Z,18.77
2023-05-07T18:06:58.919Z,18.90
2023-05-07T18:09:30.473Z,18.90
2023-05-07T18:11:59.110Z,17.87
2023-05-07T18:14:27.626Z,19.80
2023-05-07T18:16:54.814Z,20.67
2023-05-07T18:19:24.095Z,20.45
2023-05-07T18:21:56.975Z,18.10
2023-05-07T18:24:30.859Z,18.30
2023-05-07T18:27:01.844Z,17.87
2023-05-07T18:29:30.309Z,20.50
2023-05-07T18:32:02.257Z,18.95
2023-05-07T18:34:32.776Z,19.75
2023-05-07T18:37:09.520Z,19.15
2023-05-07T18:39:39.711Z,20.37
2023-05-07T18:42:10.575Z,20.10
2023-05-07T18:44:41.965Z,18.20
2023-05-07T18:47:13.921Z,18.57
2023-05-07T18:49:43.477Z,20.47
2023-05-07T18:52:11.706Z,19.77
2023-05-07T18:54:49.542Z,18.33
2023-05-07T18:57:17.723Z,18.53
2023-05-07T18:59:48.764Z,20.77
2023-05-07T19:02:19.369Z,19.67
2023-05-07T19:04:58.068Z,20.87
2023-05-07T19:07:26.750Z,21.50
2023-05-07T19:10:04.929Z,25.97
2023-05-07T19:12:35.720Z,23.87
2023-05-07T19:15:12.897Z,23.83
2023-05-07T19:17:46.438Z,22.23
2023-05-07T19:20:16.821Z,23.70
2023-05-07T19:22:53.308Z,21.40
2023-05-07T19:25:23.755Z,22.07
2023-05-07T19:27:52.282Z,20.80
2023-05-07T19:30:22.367Z,20.90
2023-05-07T19:32:58.981Z,19.53
2023-05-07T19:35:28.294Z,20.60
2023-05-07T19:37:57.462Z,23.23
2023-05-07T19:40:27.062Z,21.87
2023-05-07T19:42:57.152Z,21.33
2023-05-07T19:45:27.583Z,20.60
2023-05-07T19:48:05.695Z,19.13
2023-05-07T19:50:38.003Z,20.03
2023-05-07T19:53:07.112Z,19.80
2023-05-07T19:55:35.563Z,21.97
2023-05-07T19:58:17.502Z,23.03
2023-05-07T20:00:46.583Z,19.57
2023-05-07T20:03:22.494Z,19.13
2023-05-07T20:05:51.849Z,23.43
2023-05-07T20:08:21.899Z,22.30
2023-05-07T20:11:00.667Z,24.13
2023-05-07T20:13:32.759Z,22.80
2023-05-07T20:16:08.086Z,24.40
2023-05-07T20:18:35.578Z,22.20
2023-05-07T20:21:05.533Z,22.70
2023-05-07T20:23:36.781Z,23.73
2023-05-07T20:26:07.728Z,25.00
2023-05-07T20:28:37.514Z,24.67
2023-05-07T20:31:06.974Z,23.03
2023-05-07T20:33:41.082Z,21.97
2023-05-07T20:36:17.699Z,23.03
2023-05-07T20:38:47.518Z,22.83
2023-05-07T20:41:14.904Z,24.37
2023-05-07T20:43:52.510Z,24.37
2023-05-07T20:46:24.003Z,24.03
2023-05-07T20:49:01.547Z,24.23
2023-05-07T20:51:40.177Z,22.20
2023-05-07T20:54:10.401Z,22.87
2023-05-07T20:56:38.331Z,23.90
2023-05-07T20:59:16.871Z,22.67
2023-05-07T21:01:48.290Z,22.53
2023-05-07T21:04:18.464Z,24.50
2023-05-07T21:06:50.864Z,24.40
2023-05-07T21:09:21.402Z,22.93
2023-05-07T21:11:52.834Z,21.47
2023-05-07T21:14:22.513Z,23.63
2023-05-07T21:16:51.732Z,23.70
2023-05-07T21:19:21.541Z,25.20
2023-05-07T21:21:56.704Z,27.13
2023-05-07T21:24:27.395Z,26.27
2023-05-07T21:27:03.525Z,26.10
2023-05-07T21:29:39.167Z,25.33
2023-05-07T21:32:11.486Z,24.00
2023-05-07T21:34:47.016Z,25.83
2023-05-07T21:37:16.445Z,24.90
2023-05-07T21:39:47.129Z,25.13
2023-05-07T21:42:17.121Z,23.67
2023-05-07T21:44:47.260Z,22.67
2023-05-07T21:47:16.083Z,23.37
2023-05-07T21:49:48.638Z,23.33
2023-05-07T21:52:19.495Z,22.57
2023-05-07T21:55:03.002Z,22.23
2023-05-07T21:57:34.120Z,19.97
2023-05-07T22:00:11.683Z,19.00
2023-05-07T22:02:44.347Z,18.40
2023-05-07T22:05:14.920Z,17.67
2023-05-07T22:07:57.165Z,18.03
2023-05-07T22:10:32.436Z,16.93
2023-05-07T22:13:05.479Z,15.90
2023-05-07T22:15:49.626Z,16.00
2023-05-07T22:18:36.846Z,14.90
2023-05-07T22:21:14.534Z,14.83
2023-05-07T22:23:43.311Z,15.47
2023-05-07T22:26:14.841Z,13.73
2023-05-07T22:28:43.479Z,15.17
2023-05-07T22:31:15.131Z,14.73
2023-05-07T22:33:51.720Z,14.30
2023-05-07T22:36:22.196Z,15.17
2023-05-07T22:38:52.850Z,15.00
2023-05-07T22:41:21.701Z,13.87
2023-05-07T22:44:01.692Z,15.97
2023-05-07T22:46:30.164Z,14.97
2023-05-07T22:49:06.152Z,14.57
2023-05-07T22:51:36.260Z,14.57
2023-05-07T22:54:11.668Z,14.27
2023-05-07T22:56:42.134Z,13.87
2023-05-07T22:59:11.122Z,13.90
2023-05-07T23:01:47.440Z,13.83
2023-05-07T23:06:59.064Z,13.07
2023-05-07T23:09:35.708Z,13.20
2023-05-07T23:12:08.297Z,11.67
2023-05-07T23:14:38.230Z,11.40
2023-05-07T23:17:15.115Z,11.60
2023-05-07T23:19:52.310Z,10.90
2023-05-07T23:22:20.696Z,11.27
2023-05-07T23:24:50.003Z,11.23
2023-05-07T23:27:21.306Z,11.73
2023-05-07T23:29:52.303Z,10.93
2023-05-07T23:32:30.434Z,10.00
2023-05-07T23:35:00.344Z,10.83
2023-05-07T23:37:30.223Z,10.57
2023-05-07T23:40:00.188Z,11.83
2023-05-07T23:42:37.122Z,11.17
2023-05-07T23:45:07.409Z,11.40
2023-05-07T23:47:37.810Z,11.37
2023-05-07T23:50:06.063Z,11.03
2023-05-07T23:52:34.292Z,11.10
2023-05-07T23:55:11.955Z,11.37
2023-05-07T23:57:39.248Z,11.27
